Hoosier Classic - Hand Inventory

Station: INVENTORY - T Race

Distance: 10 Miles

Release: 31-May-2017 11:00

Weather Release:    Arrival:

Wind at Release:     Wind at Arrival:

Temp at Release: °    Temp at Arrival: °

Lofts: 340

Birds: 1674

Clocked: 1625

Good Luck to Everyone!
Drops Pos Breeder Pigeon Name Color Sex Ent Arrival Speed To Win Eligible Op 1Op 2
1 Pengfei Lin - NY 0111-AU17-NYLI BWF C 1 12:45:05.20 167.481 00:00:00 Missing
2 Leyba's Loft - CA 0064-AU17-LEYB DCH H 1 12:49:56.70 160.080 00:04:52 Yes
3 Hutchins/Milner - TX 0029-AU17-HUTC BB H 1 12:50:10.50 159.746 00:05:05 Yes
4 Mc Laughlin Lofts - MA 1014-AU17-MCLO BB C 1 12:50:23.30 159.437 00:05:18 Missing
5 Zhenyuan Guo - SC 0624-AU17-GUO BCH H 1 12:50:41.00 159.012 00:05:36 Yes
6 F T L Loft - IN 13873-AU17-AA BCH H 1 12:50:51.70 158.756 00:05:47 Yes
7 Sanso Loft - FL 0307-AU17-RAND BWF H 1 12:51:06.60 158.402 00:06:01 Missing
8 Barbara Byrski - WI 2608-AU17-GW BWF C 1 12:51:19.20 158.103 00:06:14 Yes
9 Red Ass Ranch - TX 0126-AU17-RAR BB H 1 12:51:39.30 157.628 00:06:34 Lost
10 Igor & Sons Loft - OR 0138-AU17-OTC RCH C 1 12:51:52.50 157.318 00:06:47 Missing
11 Nemeth Family Loft - CA 9032-AU17-BON BB H 1 12:52:07.70 156.963 00:07:03 Yes
12 Pekala Loft - IL 0469-AU17-LVRP BB C 1 12:52:17.80 156.728 00:07:13 Yes
13 Twin Loft - FL 0044-AU17-ANTH BB C 1 12:52:30.80 156.426 00:07:26 Yes
14 Jones Family Loft - TX 7017-AU17-JFL BBPD H 1 12:52:41.40 156.181 00:07:36 Yes
15 Fly High - IL 0602-AU17-LCC BB H 1 12:52:50.90 155.962 00:07:46 Yes
16 Red Ass Ranch - TX 0116-AU17-RAR BB C 2 12:53:00.60 155.738 00:07:55 Lost
17 Toro Loft - FL 1257-AU17-FMI BB H 1 12:53:09.60 155.532 00:08:04 Lost
18 Sam A Miller - KY 27980-AU17-JEDD BLWF C 1 12:53:20.00 155.294 00:08:15 Yes
19 Rpm Syndicate - ON 0004-AU17-BFS BB C 1 12:53:32.80 155.002 00:08:28 Yes
20 Loft By Augustine - KS 7339-AU17-SWK DCH H 1 12:53:42.40 154.784 00:08:37 Yes
21 Furia - FL 0010-AU17-FURI BSP H 1 12:56:21.40 151.259 00:11:16 Missing
22 Floden Lofts - KY 5054-AU17-VK BB H 1 12:56:38.70 150.885 00:11:34 Yes
23 Baptista - IL 0016-AU17-BAPT svrx? BB H 1 12:56:49.20 150.659 00:11:44 Yes
24 Elton Dinga - TX 12041-AU17-AA Klaas BB C 1 12:57:02.00 150.385 00:11:57 Yes
25 Yong Sheng Chinese Pigeon Club - VA 0161-AU17-YSPC 永勝 161 BWF H 1 12:57:12.60 150.158 00:12:07 Missing
26 C & K Loft - FL 0858-AU17-KCHE BCH H 1 12:57:30.60 149.774 00:12:25 Yes
27 Sandstrom Brothers Loft - MN 0704-AU17-SBL BCH H 1 12:57:43.90 149.492 00:12:39 Missing
28 T B Brothers Loft - MS 4452-AU17-VK BB H 1 12:58:03.60 149.077 00:12:58 Yes
29 Genesis Syndicate Loft - AZ 0293-AU17-SYN BCH C 1 12:58:17.30 148.789 00:13:12 Yes
30 Paul Byrski - WI 2541-AU17-GW BB H 1 12:58:25.80 148.611 00:13:21 Yes
31 Skyline - FL 0469-AU17-SKY BCH H 1 12:58:41.10 148.292 00:13:36 Yes
32 Modud - CO 1315-AU17-SD BWF H 1 12:58:54.30 148.017 00:13:49 Yes
33 Tony Gralik - IN 0016-AU17-MCI BB C 1 12:59:06.90 147.756 00:14:02 Missing
34 Two-Be-Won - NV 17116-AU17-TWOB BPD H 1 12:59:25.60 147.371 00:14:20 Yes
35 C & K Loft - FL 0818-AU17-KCHE BCH H 2 12:59:33.80 147.202 00:14:29 Lost
36 P N W Challenge - ID 7044-AU17-PNWC "724-0350" BWF H 1 12:59:52.70 146.816 00:14:47 Yes
37 Jones Family & Gwp Macaloney - TX 7086-AU17-JFL BB H 1 13:00:03.00 146.606 00:14:58 Yes
38 Elton Dinga - TX 12032-AU17-AA Klaas x Kruger BWF H 2 13:00:20.70 146.246 00:15:16 Yes
39 Papas Loft - ID 20307-AU17-ARPU BCH H 1 13:00:29.40 146.070 00:15:24 Lost
40 Leo Loft - IN 0002-AU17-AMER BB H 1 13:00:54.80 145.559 00:15:50 Yes
41 Barbara Byrski - WI 2598-AU17-GW BWF C 2 13:02:42.90 143.422 00:17:38 Missing
42 Hi-Cal Connection - CA 0755-AU17-HICA BWF H 1 13:02:55.60 143.175 00:17:50 Yes
43 Tegan Bogoslawski - IN 0089-AU17-ANDY BBWF H 1 13:04:08.40 141.775 00:19:03 Yes
44 V Lin - IA 0374-AU17-VALI BCWF H 1 13:04:22.10 141.515 00:19:17 Yes
45 Aubrina & Pappy - IN 0926-AU17-VK BBPD H 1 13:04:30.80 141.350 00:19:26 Yes
46 1 Touchdown - NV 34593-AU17-ARPU BWF C 1 13:04:42.30 141.133 00:19:37 Missing
47 Twins Loft - TX 5925-AU17-AA BCH C 1 13:05:13.90 140.540 00:20:09 Yes
48 Dave Byer - CA 5702-AU17-ARPU BB H 1 13:07:55.80 137.575 00:22:51 Missing
49 Nanez Family Lofts - WI 4041-AU17-NFL RCH C 1 13:08:09.80 137.325 00:23:05 Missing
50 George Loft - CA 0515-AU17-SFR BB H 1 13:08:20.10 137.141 00:23:15 Yes
51 Dan-Sherri & The Garfield Boys - UT 7107-AU17-CDR "Ms Sherri 74881" BWF H 1 13:08:26.70 137.024 00:23:21 Yes
52 Alca Girls - IL 61911-AU17-ARPU Meannie BWF H 1 13:08:41.20 136.766 00:23:36 Yes
53 Pacos Lofts - CA 0772-AU17-PACO DCH H 1 13:08:47.10 136.662 00:23:42 Yes
54 Yandy Family Loft - FL 1250-AU17-VK BCH H 1 13:09:13.70 136.193 00:24:09 Yes
55 Book & Van Wingerden - AZ 7013-AU17-BOOK Paloma Dorado BB C 1 13:09:23.30 136.025 00:24:18 Yes
56 Richard Callahan - MO 1606-AU17-AA BB C 1 13:09:39.80 135.736 00:24:35 Yes
57 Hwy 51 Loft - OK 0759-AU17-HWY BWF C 1 13:09:52.90 135.508 00:24:48 Missing
58 Any Given Day Quest - TX 17077-AU17-AGD BB H 1 13:10:06.00 135.281 00:25:01 Lost
59 Flawless - NY 0742-IF17-FVC BB C 1 13:10:17.10 135.088 00:25:12 Yes
60 G-M Loft - AZ 0132-AU17-YSCP BCH H 1 13:10:34.30 134.792 00:25:29 Yes
61 Tegan Bogoslawski - IN 0065-AU17-ANDY BB H 2 13:10:43.40 134.635 00:25:38 Yes
62 Sanso Loft - FL 3902-AU17-HRPC BB H 2 13:10:51.30 134.500 00:25:46 Yes
63 Sandstrom Brothers Loft - MN 0703-AU17-SBL DCH H 2 13:10:59.70 134.356 00:25:55 Missing
64 Champ Camp - IN 0117-AU17-CHAM BB H 1 13:11:11.90 134.148 00:26:07 Yes
65 Bayside Loft - NY 56303-IF17-NEIL BB H 1 13:12:25.40 132.907 00:27:20 Yes
66 Mike Ennis - PA 9042-IF17-PHX BB H 1 13:12:39.20 132.677 00:27:34 Yes
67 Not Eligible - FL Disqualified 17 X 790 1 13:12:49.60 132.504 00:27:44 No
68 Dream Union - DC 1198-IF17-SLP BB C 1 13:13:06.50 132.223 00:28:01 Missing
69 Mates Loft - GA 0043-AU17-MATE BB C 1 13:13:30.80 131.822 00:28:26 Yes
70 Isla Loft - FL 26851-AU17-JEDD DCH C 1 13:13:50.00 131.507 00:28:45 Lost
71 Schiavone - IL 7525-AU17-VK BB C 1 13:14:03.20 131.291 00:28:58 Missing
72 Wolf's Den Loft - IL 0020-AU17-WOLF BB C 1 13:14:15.00 131.099 00:29:10 Yes
73 Valdmake Loft - FL 8220-AU17-AA CHSP H 1 13:14:32.70 130.811 00:29:28 Missing
74 Alca Girls - IL 61913-AU17-ARPU Mynnie BBPD H 2 13:14:42.00 130.661 00:29:37 Yes
75 Chinese Union 2 - VA 0141-AU17-XINF BB H 1 13:14:57.30 130.414 00:29:52 Yes
76 Brito Loft - FL 0126-AU17-BRIT BB C 1 13:15:17.30 130.093 00:30:12 Lost
77 Wolf's Den Loft - IL 0033-AU17-WOLF BSP C 2 13:15:28.90 129.907 00:30:24 Missing
78 Silvercreek Loft - ON 0085-CU17-SILV BPEN C 1 13:15:39.90 129.731 00:30:35 Lost
79 Chachi Loft - FL 30021-AU17-ARPU shakira BB H 1 13:15:50.00 129.571 00:30:45 Lost
80 Racine Jun Xiao - WI 0530-AU17-RAC BB H 1 13:15:57.30 129.455 00:30:52 Yes
81 Fassio Loft - UT 0559-AU17-SLI BLK C 1 13:16:07.10 129.299 00:31:02 Yes
82 F Vasquez Loft - CA 0004-AU17-VL BWF H 1 13:16:21.30 129.075 00:31:16 Lost
83 Ganus Family Loft - IN 0718-AU17-GFL BB H 1 13:16:31.30 128.917 00:31:26 Yes
84 Mc Laughlin Lofts - MA 1038-AU17-MCLO BB H 2 13:16:43.00 128.733 00:31:38 Yes
85 Liu Loft - NC 8819-AU17-KV BB H 1 13:16:56.20 128.527 00:31:51 Lost
86 Chai Suen Siu - MI 1650-AU17-GRM BCH H 1 13:17:49.30 127.701 00:32:44 Lost
87 Baldwin & Tilson - NC 7053-AU17-TENT BBWF H 1 13:18:02.30 127.501 00:32:57 Yes
88 Shi Xuan Fang - CA 0912-AU17-MAX BB H 1 13:18:22.70 127.188 00:33:17 Yes
89 Nemelka Racing Pigeon Loft - UT 7043-AU17-NRPL 5166 x 5016 BCH H 1 13:18:32.20 127.042 00:33:27 Yes
90 Southern Belle - GA 0002-AU17-NEA BB H 1 13:18:43.40 126.871 00:33:38 Yes
91 Valdmake Loft - FL 8223-AU17-AA BCH H 2 13:18:54.00 126.710 00:33:49 Yes
92 V Lin - IA 1898-AU17-VK BB H 2 13:19:05.30 126.538 00:34:00 Yes
93 Steven Loft - TX 5888-AU17-ARPU BBWF C 1 13:19:16.50 126.369 00:34:11 Yes
94 Twin Loft - FL 0596-AU17-BLES BCH H 1 13:19:28.90 126.181 00:34:24 Yes
95 Hmong Syndicate - MN 0334-AU17-ROYA HMONG TIME BCH H 1 13:19:39.90 126.016 00:34:35 Yes
96 Elton Dinga - TX 12052-AU17-AA Klaas BB C 3 13:19:55.70 125.779 00:34:50 Lost
97 Sanso Loft - FL 0292-AU17-RAND DCH C 3 13:20:05.00 125.640 00:35:00 Missing
98 Ceyx Loft - CA 0810-AU17-CEYX BSP H 1 13:20:15.30 125.486 00:35:10 Yes
99 Julius Wilkerson - OR 60155-AU17-ARPU BCH C 1 13:20:25.90 125.328 00:35:21 Yes
100 Nanez Family Lofts - WI 4100-AU17-NFL BB H 2 13:20:40.80 125.107 00:35:36 Yes

There are 1110 bird records

Note: These Race Results are unofficial and subject to change until verified by the Race Committee and declared final.